Terminal Aerodrome Forecast
Issued by NWS Pendleton, OR

Home | Current Version | Previous Version | Text Only | Print | Product List | Glossary On
Versions: 1 2 3 4 5 6 7 8 9 10 11 12 13
217
FTUS46 KPDT 260520
TAFPDT
TAF
KPDT 260520Z 2606/2706 34006KT P6SM SCT250
     FM261000 13005KT P6SM FEW250
     FM261900 31008KT P6SM SCT120 BKN250
     FM270300 30007KT P6SM BKN120 OVC250=

USA.gov is the U.S. government's official web portal to all federal, state and local government web resources and services.